Time;durP1;ratioP1;P1;durP2;ratioP2;P2;SDS_P1;SDS_P2;PMS_P1;PMS_P2;Temp;Humidity;BMP_temperature;BMP_pressure;BME280_temperature;BME280_humidity;BME280_pressure;Samples;Min_cycle;Max_cycle;Signal;HPM_P1;HPM_P2
2022/07/04 00:02:30;;;;;;;3.00;1.88;;;;;;;12.06;99.89;100014.94;5026662;28;20071;-58
2022/07/04 00:05:01;;;;;;;2.72;2.17;;;;;;;12.02;99.58;100017.66;5026256;28;20310;-59
2022/07/04 00:07:31;;;;;;;3.20;1.80;;;;;;;12.01;100.00;100011.59;5025991;28;20356;-58
2022/07/04 00:10:02;;;;;;;2.90;1.90;;;;;;;12.03;100.00;100020.25;5026316;28;20065;-58
2022/07/04 00:12:33;;;;;;;3.00;2.00;;;;;;;12.01;100.00;100022.06;5026155;28;20232;-58
2022/07/04 00:15:06;;;;;;;4.20;2.25;;;;;;;11.95;99.99;100021.34;5026235;28;20083;-59
2022/07/04 00:17:37;;;;;;;3.28;2.03;;;;;;;11.98;100.00;100027.38;5026304;28;20053;-58
2022/07/04 00:20:10;;;;;;;2.42;2.03;;;;;;;11.85;100.00;99999.75;5025747;28;20049;-59
2022/07/04 00:22:40;;;;;;;3.78;2.40;;;;;;;12.03;100.00;100024.63;5026087;28;20119;-59
2022/07/04 00:25:11;;;;;;;3.70;2.20;;;;;;;12.04;99.99;100032.44;5026311;28;20041;-59
2022/07/04 00:27:42;;;;;;;2.80;2.33;;;;;;;12.04;100.00;100037.69;5026024;28;20057;-59
2022/07/04 00:30:15;;;;;;;2.20;1.85;;;;;;;12.02;100.00;100028.16;5026153;28;20467;-60
2022/07/04 00:32:45;;;;;;;3.13;2.17;;;;;;;12.03;100.00;100040.31;5026047;28;20057;-59
2022/07/04 00:35:16;;;;;;;3.13;2.20;;;;;;;12.04;100.00;100037.69;5026668;28;20057;-58
2022/07/04 00:37:46;;;;;;;2.67;2.30;;;;;;;12.02;100.00;100039.47;5026261;28;20066;-60
2022/07/04 00:40:17;;;;;;;2.60;2.22;;;;;;;12.03;100.00;100041.22;5025995;28;20268;-59
2022/07/04 00:42:48;;;;;;;3.13;2.60;;;;;;;12.06;100.00;100043.75;5027136;28;20130;-59
2022/07/04 00:45:20;;;;;;;4.43;2.60;;;;;;;12.07;99.90;100045.44;5025879;28;20061;-58
2022/07/04 00:47:50;;;;;;;3.60;2.85;;;;;;;12.09;100.00;100045.41;5023129;28;20076;-59
2022/07/04 00:50:21;;;;;;;4.32;2.70;;;;;;;12.09;99.96;100041.03;5022924;28;20068;-59
2022/07/04 00:52:52;;;;;;;4.03;2.50;;;;;;;12.06;99.90;100046.38;5025806;28;20042;-58
2022/07/04 00:55:24;;;;;;;4.80;2.65;;;;;;;12.02;99.85;100030.75;5025335;28;20095;-58
2022/07/04 00:57:54;;;;;;;3.60;2.90;;;;;;;12.05;100.00;100034.16;5025137;28;20041;-59
2022/07/04 01:00:26;;;;;;;3.72;2.88;;;;;;;12.05;99.78;100044.63;5026064;28;20057;-60
2022/07/04 01:02:57;;;;;;;4.13;2.97;;;;;;;12.07;100.00;100042.84;5025859;28;20045;-60
2022/07/04 01:05:28;;;;;;;4.60;2.90;;;;;;;12.12;100.00;100044.47;5026060;28;20250;-60
2022/07/04 01:08:00;;;;;;;6.50;3.33;;;;;;;11.78;100.00;99982.47;5026061;28;20306;-60
2022/07/04 01:10:30;;;;;;;5.63;3.13;;;;;;;12.21;99.74;100044.25;5025529;28;20312;-59
2022/07/04 01:13:01;;;;;;;5.20;3.40;;;;;;;12.16;99.72;100046.13;5025968;28;20054;-61
2022/07/04 01:15:33;;;;;;;4.82;3.08;;;;;;;12.20;99.92;100053.00;5025416;28;20076;-58
2022/07/04 01:18:04;;;;;;;8.88;3.40;;;;;;;12.21;99.64;100049.50;5025462;28;20057;-60
2022/07/04 01:20:39;;;;;;;3.92;3.38;;;;;;;12.14;99.90;100047.94;5025226;28;20196;-60
2022/07/04 01:23:10;;;;;;;3.22;2.90;;;;;;;12.11;100.00;100048.88;5025495;28;20099;-60
2022/07/04 01:25:40;;;;;;;5.82;3.30;;;;;;;12.09;100.00;100051.50;5025556;28;20396;-59
2022/07/04 01:28:12;;;;;;;4.63;3.33;;;;;;;12.13;100.00;100056.66;5025322;28;20061;-59
2022/07/04 01:30:42;;;;;;;5.53;3.42;;;;;;;12.04;99.90;100032.44;5025503;28;20050;-60
2022/07/04 01:33:13;;;;;;;6.30;3.95;;;;;;;12.18;100.00;100049.53;5025441;28;20049;-60
2022/07/04 01:35:45;;;;;;;8.18;3.60;;;;;;;12.15;99.97;100055.72;5025345;28;20041;-60
2022/07/04 01:38:16;;;;;;;4.85;3.65;;;;;;;12.17;100.00;100053.94;5024881;28;20057;-60
2022/07/04 01:40:47;;;;;;;4.35;3.47;;;;;;;12.27;100.00;100062.41;5025161;28;20120;-60
2022/07/04 01:43:17;;;;;;;4.65;3.40;;;;;;;12.30;99.77;100059.69;5025124;28;20057;-60
2022/07/04 01:45:48;;;;;;;10.63;3.75;;;;;;;12.38;99.70;100057.75;5025563;28;20105;-59
2022/07/04 01:48:18;;;;;;;6.43;3.70;;;;;;;12.40;99.78;100066.41;5025236;28;20517;-61
2022/07/04 01:50:50;;;;;;;5.13;3.88;;;;;;;12.36;99.11;100064.78;5025140;28;20238;-59
2022/07/04 01:53:21;;;;;;;5.00;3.25;;;;;;;12.27;98.89;100054.56;5025176;28;20050;-59
2022/07/04 01:55:52;;;;;;;5.90;3.50;;;;;;;12.27;98.90;100065.03;5025153;28;20053;-60
2022/07/04 01:58:22;;;;;;;4.10;3.50;;;;;;;12.25;99.05;100072.06;5025335;28;20242;-59
2022/07/04 02:03:40;;;;;;;6.80;4.00;;;;;;;12.26;99.22;100073.81;5024912;28;20103;-59
2022/07/04 02:06:13;;;;;;;6.53;4.28;;;;;;;12.22;99.56;100073.00;5024897;28;20314;-60
2022/07/04 02:13:00;;;;;;;6.82;4.45;;;;;;;12.26;99.74;100058.09;5028657;28;20203;-58
2022/07/04 02:14:21;;;;;;;8.27;4.70;;;;;;;12.29;99.94;100058.84;5028337;28;20049;-60
2022/07/04 02:16:51;;;;;;;5.18;3.92;;;;;;;12.34;99.71;100066.59;5028293;28;20062;-60
2022/07/04 02:19:22;;;;;;;10.07;5.20;;;;;;;12.35;99.42;100063.06;5021308;28;20049;-59
2022/07/04 02:21:54;;;;;;;7.45;5.18;;;;;;;12.36;99.46;100070.03;5039380;28;20221;-61
2022/07/04 02:24:25;;;;;;;5.30;4.47;;;;;;;12.36;99.42;100075.28;5041287;28;20067;-60
2022/07/04 02:26:55;;;;;;;11.10;5.85;;;;;;;12.38;99.37;100067.34;5041135;28;20060;-62
2022/07/04 02:29:26;;;;;;;8.18;5.47;;;;;;;12.33;99.18;100070.13;5041818;28;20302;-61
2022/07/04 02:31:56;;;;;;;8.13;5.60;;;;;;;12.29;99.26;100073.72;5041621;28;20099;-62
2022/07/04 02:34:27;;;;;;;13.13;6.13;;;;;;;12.32;99.48;100072.78;5041679;28;20107;-61
2022/07/04 02:36:59;;;;;;;16.55;6.20;;;;;;;12.32;99.47;100063.16;5041491;28;20064;-63
2022/07/04 02:39:30;;;;;;;11.52;6.80;;;;;;;12.32;99.43;100067.53;5041396;28;20314;-61
2022/07/04 02:42:00;;;;;;;10.25;7.03;;;;;;;12.26;99.07;100068.56;5041325;28;20088;-59
2022/07/04 02:44:31;;;;;;;17.95;6.97;;;;;;;12.32;99.32;100084.09;5041458;28;20061;-59
2022/07/04 02:47:02;;;;;;;13.82;8.05;;;;;;;12.30;99.46;100075.41;5041337;28;20529;-60
2022/07/04 02:49:32;;;;;;;14.07;7.70;;;;;;;12.15;99.46;100054.88;5041399;28;20302;-59
2022/07/04 02:52:05;;;;;;;13.60;7.72;;;;;;;12.30;99.37;100081.53;5041273;28;20387;-62
2022/07/04 02:54:35;;;;;;;19.70;8.32;;;;;;;12.29;99.52;100085.03;5041470;28;20172;-59
2022/07/04 02:57:06;;;;;;;16.67;8.20;;;;;;;12.27;99.49;100092.09;5041271;28;20049;-60
2022/07/04 02:59:37;;;;;;;16.23;8.23;;;;;;;12.26;99.36;100092.13;5040884;28;20365;-59
2022/07/04 03:02:08;;;;;;;17.48;6.88;;;;;;;12.14;99.27;100095.94;5041095;28;20080;-61
2022/07/04 03:04:39;;;;;;;14.43;6.88;;;;;;;12.03;99.72;100093.59;5040888;28;20049;-59
2022/07/04 03:07:12;;;;;;;11.73;7.38;;;;;;;11.99;100.00;100096.31;5040999;28;20049;-62
2022/07/04 03:09:42;;;;;;;14.05;7.95;;;;;;;12.00;100.00;100098.03;5040811;28;20081;-60
2022/07/04 03:12:13;;;;;;;17.05;8.10;;;;;;;11.99;100.00;100099.78;5040462;28;20056;-59
2022/07/04 03:14:43;;;;;;;13.57;7.72;;;;;;;12.04;100.00;100100.53;5040774;28;20326;-59
2022/07/04 03:17:14;;;;;;;13.35;8.02;;;;;;;12.04;100.00;100100.53;5040674;28;20053;-61
2022/07/04 03:19:45;;;;;;;10.90;6.97;;;;;;;12.05;100.00;100097.00;5040185;28;20120;-61
2022/07/04 03:22:17;;;;;;;16.20;8.13;;;;;;;12.12;100.00;100096.88;5040590;28;20233;-63
2022/07/04 03:24:48;;;;;;;12.95;7.55;;;;;;;12.18;100.00;100096.69;5040538;28;20072;-61
2022/07/04 03:27:19;;;;;;;13.85;6.85;;;;;;;12.17;99.62;100095.00;5040550;28;20079;-62
2022/07/04 03:29:49;;;;;;;10.57;7.20;;;;;;;12.25;99.95;100099.09;5040630;28;20057;-60
2022/07/04 03:32:20;;;;;;;10.93;7.32;;;;;;;12.29;99.36;100099.91;5040291;28;20229;-60
2022/07/04 03:34:50;;;;;;;12.32;7.50;;;;;;;12.26;99.29;100105.25;5040483;28;20046;-62
2022/07/04 03:37:22;;;;;;;12.02;7.65;;;;;;;12.33;98.92;100100.69;5040314;28;20067;-61
2022/07/04 03:39:53;;;;;;;11.55;7.18;;;;;;;12.28;98.91;100098.16;5040385;28;20366;-61
2022/07/04 03:42:23;;;;;;;14.23;7.60;;;;;;;12.30;99.11;100101.63;5040231;28;20092;-59
2022/07/04 03:44:54;;;;;;;18.75;8.68;;;;;;;12.35;99.13;100099.72;5040332;28;20063;-63
2022/07/04 03:47:25;;;;;;;13.75;6.70;;;;;;;12.32;98.48;100102.44;5040182;28;20117;-59
2022/07/04 03:49:55;;;;;;;13.68;7.60;;;;;;;12.26;98.73;100105.25;5039919;28;20104;-63
2022/07/04 03:52:27;;;;;;;13.05;8.13;;;;;;;12.23;98.84;100106.19;5040063;28;20045;-59
2022/07/04 03:54:58;;;;;;;14.20;8.25;;;;;;;12.29;99.11;100105.16;5039995;28;20067;-61
2022/07/04 03:57:29;;;;;;;16.23;8.30;;;;;;;12.33;99.20;100101.56;5040093;28;20111;-60
2022/07/04 03:59:59;;;;;;;12.75;8.30;;;;;;;12.31;98.62;100095.50;5039751;28;20241;-60
2022/07/04 04:02:30;;;;;;;12.75;7.97;;;;;;;12.36;98.75;100101.47;5039832;28;20072;-63
2022/07/04 04:07:46;;;;;;;14.85;9.35;;;;;;;12.30;98.49;100101.63;5028468;28;20053;-61
2022/07/04 04:10:17;;;;;;;15.80;8.73;;;;;;;12.32;98.80;100094.59;5024407;28;20105;-61
2022/07/04 04:12:47;;;;;;;13.27;8.65;;;;;;;12.30;98.71;100101.63;5019716;28;20112;-61
2022/07/04 04:15:18;;;;;;;19.23;8.38;;;;;;;12.28;98.52;100103.41;5019716;28;20045;-61
2022/07/04 04:17:48;;;;;;;16.17;8.85;;;;;;;12.28;98.70;100103.41;5028156;28;20048;-61
2022/07/04 04:20:19;;;;;;;15.40;9.95;;;;;;;12.28;99.08;100113.88;5032367;28;20209;-60
2022/07/04 04:22:51;;;;;;;20.40;10.77;;;;;;;12.28;99.08;100095.56;5028250;28;20061;-60
2022/07/04 04:25:22;;;;;;;18.15;8.25;;;;;;;12.33;99.18;100100.69;5026506;28;20086;-61
2022/07/04 04:27:52;;;;;;;20.50;10.05;;;;;;;12.32;99.44;100094.59;5029313;28;20056;-60
2022/07/04 04:30:23;;;;;;;18.50;10.65;;;;;;;12.33;99.63;100096.31;5026806;28;20237;-60
2022/07/04 04:32:53;;;;;;;18.90;11.02;;;;;;;12.35;99.50;100104.97;5028560;28;20057;-60
2022/07/04 04:35:24;;;;;;;19.83;11.27;;;;;;;12.37;99.29;100095.31;5028914;28;20054;-60
2022/07/04 04:37:56;;;;;;;17.67;10.52;;;;;;;12.44;98.82;100099.50;5029909;28;20092;-59
2022/07/04 04:40:27;;;;;;;23.63;9.85;;;;;;;12.47;99.05;100098.56;5028333;28;20098;-60
2022/07/04 04:42:57;;;;;;;18.50;11.20;;;;;;;12.48;99.35;100100.28;5027176;28;20041;-61
2022/07/04 04:45:28;;;;;;;27.15;9.05;;;;;;;12.44;98.57;100109.97;5031923;28;20432;-62
2022/07/04 04:47:58;;;;;;;14.23;8.93;;;;;;;12.34;98.44;100103.28;5039437;28;20226;-61
2022/07/04 04:50:29;;;;;;;17.42;8.77;;;;;;;12.34;99.19;100098.03;5038350;28;20049;-60
2022/07/04 04:53:02;;;;;;;15.60;8.88;;;;;;;12.34;99.31;100103.28;5038907;28;20045;-63
2022/07/04 04:55:32;;;;;;;15.68;8.63;;;;;;;12.29;99.11;100110.38;5038965;28;20049;-62
2022/07/04 04:58:03;;;;;;;14.15;9.70;;;;;;;12.29;99.64;100110.38;5037222;28;20067;-61
2022/07/04 05:00:33;;;;;;;14.38;9.52;;;;;;;12.31;98.98;100111.22;5029045;28;20073;-63
2022/07/04 05:03:06;;;;;;;18.73;9.75;;;;;;;12.27;98.78;100113.03;5025970;28;20096;-61
2022/07/04 05:05:36;;;;;;;21.65;9.38;;;;;;;12.23;98.88;100106.19;5026013;28;20057;-62
2022/07/04 05:08:08;;;;;;;20.95;9.90;;;;;;;12.23;99.40;100094.81;5025836;28;20058;-62
2022/07/04 05:10:39;;;;;;;21.15;9.60;;;;;;;12.34;99.57;100113.75;5026264;28;20045;-61
2022/07/04 05:13:10;;;;;;;13.68;9.82;;;;;;;12.39;99.56;100104.00;5025478;28;20116;-61
2022/07/04 05:15:40;;;;;;;18.63;9.68;;;;;;;12.35;99.18;100099.72;5026156;28;20072;-61
2022/07/04 05:18:11;;;;;;;20.80;10.93;;;;;;;12.37;99.33;100108.41;5025497;28;20317;-61
2022/07/04 05:20:41;;;;;;;20.27;10.93;;;;;;;12.43;99.17;100108.28;5025151;28;20498;-60
2022/07/04 05:23:14;;;;;;;19.98;10.73;;;;;;;12.46;99.18;100113.44;5025481;28;20049;-61
2022/07/04 05:25:44;;;;;;;17.98;11.10;;;;;;;12.57;99.34;100105.28;5025415;28;20332;-60
2022/07/04 05:28:15;;;;;;;19.73;11.98;;;;;;;12.59;98.79;100110.47;5026073;28;20057;-62
2022/07/04 05:30:46;;;;;;;19.88;11.18;;;;;;;12.55;98.51;100114.06;5025745;28;20062;-60
2022/07/04 05:33:16;;;;;;;20.67;10.77;;;;;;;12.35;98.81;100104.97;5024903;28;20095;-63
2022/07/04 05:35:47;;;;;;;23.95;11.50;;;;;;;12.35;99.24;100115.47;5025156;28;20045;-61
2022/07/04 05:38:19;;;;;;;27.98;12.25;;;;;;;12.34;99.22;100113.75;5025283;28;20049;-62
2022/07/04 05:40:50;;;;;;;37.13;12.60;;;;;;;12.30;99.42;100112.09;5024997;28;20057;-62
2022/07/04 05:43:21;;;;;;;36.13;12.52;;;;;;;12.25;99.67;100104.34;5026255;28;20310;-62
2022/07/04 05:45:51;;;;;;;26.95;12.63;;;;;;;12.21;100.00;100099.25;5028851;28;20053;-62
2022/07/04 05:48:22;;;;;;;25.98;12.38;;;;;;;12.32;100.00;100102.44;5028739;28;20290;-62
2022/07/04 05:50:52;;;;;;;31.08;11.20;;;;;;;12.32;99.65;100104.22;5029039;28;20206;-62
2022/07/04 05:53:25;;;;;;;34.38;12.93;;;;;;;12.31;99.87;100105.97;5028900;28;20054;-63
2022/07/04 05:55:55;;;;;;;22.52;11.38;;;;;;;12.25;99.49;100108.75;5028908;28;20080;-62
2022/07/04 05:58:26;;;;;;;26.63;12.57;;;;;;;12.23;99.87;100110.53;5028852;28;20066;-63
2022/07/04 06:00:56;;;;;;;48.60;12.50;;;;;;;12.20;100.00;100110.63;5028151;28;20062;-60
2022/07/04 06:03:27;;;;;;;34.95;11.30;;;;;;;11.73;99.86;100041.94;5029045;28;20285;-62
2022/07/04 06:05:57;;;;;;;36.15;12.43;;;;;;;12.15;100.00;100107.25;5028515;28;20041;-61
2022/07/04 06:08:30;;;;;;;35.63;12.60;;;;;;;12.23;100.00;100105.28;5028491;28;20054;-62
2022/07/04 06:11:00;;;;;;;48.85;13.25;;;;;;;12.24;100.00;100107.03;5028649;28;20053;-62
2022/07/04 06:13:31;;;;;;;68.22;11.15;;;;;;;12.18;99.94;100104.56;5028620;28;20046;-63
2022/07/04 06:16:01;;;;;;;52.72;12.15;;;;;;;12.11;100.00;100100.41;5028612;28;20088;-62
2022/07/04 06:18:32;;;;;;;50.25;11.10;;;;;;;12.09;100.00;100101.28;5028463;28;20077;-62
2022/07/04 06:21:03;;;;;;;32.83;12.52;;;;;;;12.08;100.00;100107.44;5028080;28;20053;-62
2022/07/04 06:23:35;;;;;;;53.42;11.88;;;;;;;12.07;100.00;100104.84;5028388;28;20069;-60
2022/07/04 06:26:05;;;;;;;27.73;10.38;;;;;;;12.01;100.00;100116.31;5028298;28;20072;-62
2022/07/04 06:28:36;;;;;;;32.03;12.98;;;;;;;11.98;100.00;100120.75;5028299;28;20065;-62
2022/07/04 06:31:16;;;;;;;40.63;13.00;;;;;;;12.08;100.00;100117.00;5028200;28;20068;-62
2022/07/04 06:36:34;;;;;;;79.03;13.60;;;;;;;12.06;100.00;100122.31;5029295;28;20206;-62
2022/07/04 06:39:07;;;;;;;75.70;11.98;;;;;;;12.02;100.00;100114.56;5027977;28;20045;-62
2022/07/04 06:41:37;;;;;;;58.20;12.52;;;;;;;11.95;100.00;100121.69;5028741;28;20314;-61
2022/07/04 06:44:08;;;;;;;75.85;13.60;;;;;;;11.91;100.00;100113.97;5028033;28;20420;-60
2022/07/04 06:46:44;;;;;;;74.78;13.70;;;;;;;11.94;100.00;100109.50;5028058;28;20254;-60
2022/07/04 06:49:14;;;;;;;107.80;14.80;;;;;;;11.93;100.00;100113.03;5028302;28;20646;-61
2022/07/04 06:51:45;;;;;;;47.47;13.57;;;;;;;11.99;100.00;100118.13;5028105;28;20075;-60
2022/07/04 06:54:17;;;;;;;55.08;14.52;;;;;;;11.95;100.00;100111.22;5027679;28;20041;-62
2022/07/04 06:56:48;;;;;;;102.07;15.48;;;;;;;11.95;100.00;100100.75;5027763;28;20057;-59
2022/07/04 06:59:28;;;;;;;102.45;13.90;;;;;;;11.95;100.00;100111.22;5027456;28;20246;-62
2022/07/04 07:01:58;;;;;;;81.30;14.77;;;;;;;11.90;100.00;100110.47;5027214;28;20060;-60
2022/07/04 07:04:29;;;;;;;66.68;14.63;;;;;;;11.85;100.00;100102.69;5027426;28;20134;-61
2022/07/04 07:07:00;;;;;;;114.25;14.40;;;;;;;11.87;100.00;100110.56;5027445;28;20131;-60
2022/07/04 07:09:32;;;;;;;124.35;14.18;;;;;;;11.85;100.00;100109.69;5027520;28;20049;-62
2022/07/04 07:12:03;;;;;;;90.78;15.07;;;;;;;11.85;100.00;100107.06;5027863;28;20115;-60
2022/07/04 07:14:34;;;;;;;112.18;14.88;;;;;;;11.88;100.00;100109.66;5027238;28;20078;-60
2022/07/04 07:17:05;;;;;;;138.02;14.55;;;;;;;11.85;100.00;100107.06;5027776;28;20054;-62
2022/07/04 07:19:36;;;;;;;149.02;15.48;;;;;;;11.80;100.00;100107.19;5027390;28;20053;-61
2022/07/04 07:22:07;;;;;;;138.07;13.90;;;;;;;11.81;100.00;100108.94;5027216;28;20108;-62
2022/07/04 07:24:39;;;;;;;105.22;15.93;;;;;;;11.80;100.00;100111.56;5027464;28;20075;-62
2022/07/04 07:27:10;;;;;;;230.10;19.92;;;;;;;11.82;100.00;100099.31;5027202;28;20054;-61
2022/07/04 07:29:40;;;;;;;33.42;17.27;;;;;;;11.84;100.00;100102.75;5027393;28;20038;-62
2022/07/04 07:32:12;;;;;;;151.48;17.90;;;;;;;11.85;100.00;100101.84;5027372;28;20214;-61
2022/07/04 07:34:42;;;;;;;60.35;16.73;;;;;;;11.83;100.00;100101.91;5027149;28;20054;-61
2022/07/04 07:37:13;;;;;;;123.47;17.92;;;;;;;11.83;100.00;100116.72;5026944;28;20060;-65
2022/07/04 07:39:45;;;;;;;122.50;19.95;;;;;;;11.85;100.00;100117.56;5026907;28;20108;-61
2022/07/04 07:42:17;;;;;;;118.35;18.52;;;;;;;11.84;100.00;100118.47;5027461;28;20080;-61
2022/07/04 07:44:47;;;;;;;87.28;16.95;;;;;;;11.81;100.00;100118.53;5027337;28;20179;-61
2022/07/04 07:47:18;;;;;;;110.65;16.25;;;;;;;11.83;100.00;100116.72;5027110;28;20053;-62
2022/07/04 07:49:48;;;;;;;126.30;17.20;;;;;;;11.81;100.00;100118.53;5027624;28;20191;-62
2022/07/04 07:52:19;;;;;;;136.85;17.88;;;;;;;11.77;100.00;100116.88;5026794;28;20045;-60
2022/07/04 07:54:57;;;;;;;139.13;18.38;;;;;;;11.77;100.00;100119.50;5026844;28;20148;-61
2022/07/04 07:57:30;;;;;;;175.48;17.65;;;;;;;11.68;100.00;100117.09;5026807;28;20088;-63
2022/07/04 08:00:01;;;;;;;144.43;16.90;;;;;;;11.70;100.00;100125.78;5026744;28;20120;-62
2022/07/04 08:05:19;;;;;;;122.85;19.13;;;;;;;11.66;100.00;100115.38;5026099;28;20350;-64
2022/07/04 08:07:50;;;;;;;103.90;17.75;;;;;;;11.71;100.00;100117.03;5026061;28;20099;-61
2022/07/04 08:10:22;;;;;;;135.45;19.38;;;;;;;11.72;100.00;100123.97;5027423;28;20056;-62
2022/07/04 08:12:53;;;;;;;82.72;17.65;;;;;;;11.75;100.00;100126.53;5026483;28;20045;-62
2022/07/04 08:15:23;;;;;;;49.88;17.45;;;;;;;11.78;100.00;100134.28;5025874;28;20053;-62
2022/07/04 08:17:54;;;;;;;42.17;17.17;;;;;;;11.81;100.00;100134.25;5025593;28;20101;-62
2022/07/04 08:20:25;;;;;;;47.53;17.17;;;;;;;11.87;100.00;100144.59;5026315;28;20053;-62
2022/07/04 08:22:55;;;;;;;47.13;17.65;;;;;;;11.89;100.00;100153.28;5026177;28;20092;-62
2022/07/04 08:25:28;;;;;;;52.83;17.58;;;;;;;11.90;100.00;100139.28;5026458;28;20400;-62
2022/07/04 08:27:58;;;;;;;50.13;18.52;;;;;;;11.91;100.00;100146.25;5026928;28;20253;-62
2022/07/04 08:30:29;;;;;;;31.48;14.02;;;;;;;11.92;100.00;100142.72;5027131;28;20057;-62
2022/07/04 08:33:00;;;;;;;39.08;17.02;;;;;;;11.90;100.00;100155.00;5025846;28;20045;-62
2022/07/04 08:35:30;;;;;;;45.42;16.58;;;;;;;11.87;100.00;100155.06;5025643;28;20057;-61
2022/07/04 08:38:01;;;;;;;32.08;14.65;;;;;;;11.83;100.00;100158.59;5026101;28;20303;-60
2022/07/04 08:40:33;;;;;;;38.92;14.52;;;;;;;11.82;100.00;100167.38;5025826;28;20050;-61
2022/07/04 08:43:05;;;;;;;49.00;15.00;;;;;;;11.82;100.00;100167.38;5025934;28;20058;-61
2022/07/04 08:45:36;;;;;;;38.50;15.25;;;;;;;11.82;100.00;100178.69;5025874;28;20049;-61
2022/07/04 08:48:08;;;;;;;35.75;15.80;;;;;;;11.85;100.00;100180.38;5025753;28;20123;-60
2022/07/04 08:50:42;;;;;;;36.38;15.70;;;;;;;11.86;100.00;100176.88;5025894;28;20053;-61
2022/07/04 08:53:14;;;;;;;39.85;15.90;;;;;;;11.79;100.00;100167.44;5025655;28;20049;-61
2022/07/04 08:58:35;;;;;;;55.25;15.57;;;;;;;11.74;100.00;100185.00;5025334;28;20099;-63
2022/07/04 09:01:07;;;;;;;47.92;16.13;;;;;;;11.76;100.00;100194.56;5025517;28;20072;-62
2022/07/04 09:03:37;;;;;;;41.70;17.05;;;;;;;11.78;100.00;100191.88;5026076;28;20057;-62
2022/07/04 09:06:08;;;;;;;62.33;14.63;;;;;;;11.79;100.00;100193.63;5025489;28;20210;-62
2022/07/04 09:08:39;;;;;;;53.90;17.02;;;;;;;11.76;100.00;100193.69;5025102;28;20065;-63
2022/07/04 09:11:12;;;;;;;74.07;17.80;;;;;;;11.79;100.00;100201.47;5025839;28;20181;-62
2022/07/04 09:13:43;;;;;;;68.22;16.58;;;;;;;11.76;100.00;100196.31;5025961;28;20061;-62
2022/07/04 09:16:13;;;;;;;55.42;16.38;;;;;;;11.74;100.00;100201.56;5025559;28;20324;-62
2022/07/04 09:18:44;;;;;;;68.25;16.02;;;;;;;11.73;100.00;100204.22;5027090;28;20069;-61
2022/07/04 09:21:15;;;;;;;69.90;15.50;;;;;;;11.74;100.00;100205.97;5029638;28;20041;-60
2022/07/04 09:23:46;;;;;;;68.38;17.55;;;;;;;11.73;100.00;100198.97;5029387;28;20072;-62
2022/07/04 09:26:19;;;;;;;41.75;16.05;;;;;;;11.77;100.00;100200.66;5030046;28;20069;-61
2022/07/04 09:28:54;;;;;;;58.00;16.15;;;;;;;11.74;100.00;100200.72;5029087;28;20245;-62
2022/07/04 09:31:27;;;;;;;100.85;16.33;;;;;;;11.32;100.00;100140.56;5029778;28;20109;-60
2022/07/04 09:33:59;;;;;;;45.10;14.57;;;;;;;11.70;100.00;100220.00;5029554;28;20065;-60
2022/07/04 09:36:31;;;;;;;38.97;16.42;;;;;;;11.68;100.00;100211.31;5029105;28;20069;-63
2022/07/04 09:39:12;;;;;;;104.20;17.60;;;;;;;11.65;100.00;100213.09;5029426;28;20055;-60
2022/07/04 09:41:57;;;;;;;68.18;18.20;;;;;;;11.65;100.00;100218.31;5029426;28;20049;-61
2022/07/04 09:44:31;;;;;;;110.70;17.90;;;;;;;11.58;100.00;100195.81;5028838;28;20448;-62
2022/07/04 09:47:20;;;;;;;85.68;17.23;;;;;;;11.67;100.00;100218.31;5029019;28;20426;-62
2022/07/04 09:50:01;;;;;;;87.32;18.23;;;;;;;11.66;100.00;100214.84;5028842;28;20116;-62
2022/07/04 09:52:32;;;;;;;118.53;16.80;;;;;;;11.62;100.00;100223.63;5029205;28;20314;-63
2022/07/04 09:55:05;;;;;;;81.03;16.40;;;;;;;11.59;100.00;100223.72;5028480;28;20060;-61
2022/07/04 09:57:37;;;;;;;87.57;18.00;;;;;;;11.59;100.00;100228.94;5028648;28;20045;-63
2022/07/04 10:00:22;;;;;;;112.53;17.95;;;;;;;11.59;100.00;100223.72;5028450;28;20060;-62
2022/07/04 10:02:55;;;;;;;70.63;16.80;;;;;;;11.58;100.00;100232.47;5028348;28;20068;-60
2022/07/04 10:05:27;;;;;;;124.20;18.83;;;;;;;11.54;100.00;100219.47;5028286;28;20058;-61
2022/07/04 10:07:59;;;;;;;87.88;17.92;;;;;;;11.04;100.00;100133.31;5028747;28;20317;-62
2022/07/04 10:10:32;;;;;;;75.43;16.27;;;;;;;11.58;100.00;100211.53;5028642;28;20053;-62
2022/07/04 10:13:06;;;;;;;158.75;19.30;;;;;;;11.58;100.00;100226.34;5028419;28;20117;-62
2022/07/04 10:15:40;;;;;;;173.80;19.58;;;;;;;11.51;100.00;100214.31;5028446;28;20348;-61
2022/07/04 10:18:11;;;;;;;125.72;18.58;;;;;;;11.48;100.00;100220.44;5028767;28;20141;-60
2022/07/04 10:20:44;;;;;;;124.18;18.42;;;;;;;11.33;100.00;100189.38;5028489;28;20053;-61
2022/07/04 10:23:15;;;;;;;175.30;19.60;;;;;;;11.57;100.00;100235.97;5028071;28;20062;-61
2022/07/04 10:25:49;;;;;;;127.80;18.10;;;;;;;11.55;100.00;100239.50;5028401;28;20048;-60
2022/07/04 10:28:22;;;;;;;159.55;19.90;;;;;;;11.47;100.00;100221.34;5028230;28;20158;-61
2022/07/04 10:30:54;;;;;;;97.80;17.42;;;;;;;11.55;100.00;100237.75;5027084;28;20068;-62
2022/07/04 10:33:27;;;;;;;123.63;20.30;;;;;;;11.53;100.00;100247.41;5027804;28;20274;-61
2022/07/04 10:36:01;;;;;;;163.57;18.60;;;;;;;11.53;100.00;100244.78;5027725;28;20053;-61
2022/07/04 10:38:32;;;;;;;227.32;21.75;;;;;;;11.50;100.00;100249.19;5028421;28;20053;-61
2022/07/04 10:41:05;;;;;;;185.98;18.90;;;;;;;11.48;100.00;100257.06;5028008;28;20059;-60
2022/07/04 10:43:59;;;;;;;246.52;20.58;;;;;;;11.51;100.00;100250.94;5027926;28;20057;-62
2022/07/04 10:46:35;;;;;;;85.00;16.77;;;;;;;11.52;100.00;100263.97;5027976;28;20122;-61
2022/07/04 10:49:08;;;;;;;134.23;18.92;;;;;;;11.49;100.00;100253.56;5027990;28;20103;-61
2022/07/04 10:51:41;;;;;;;211.43;20.85;;;;;;;11.53;100.00;100270.06;5027696;28;20053;-60
2022/07/04 10:54:14;;;;;;;138.15;17.40;;;;;;;11.56;100.00;100276.13;5027577;28;20054;-61
2022/07/04 10:56:50;;;;;;;182.43;19.25;;;;;;;11.50;100.00;100271.00;5027929;28;20057;-60
2022/07/04 10:59:26;;;;;;;118.05;18.67;;;;;;;11.49;100.00;100279.75;5027588;28;20312;-62
2022/07/04 11:02:31;;;;;;;229.07;19.35;;;;;;;11.47;100.00;100278.91;5027366;28;20064;-61
2022/07/04 11:05:04;;;;;;;164.20;17.98;;;;;;;11.47;100.00;100276.28;5028489;28;20214;-62
2022/07/04 11:08:06;;;;;;;188.40;15.90;;;;;;;11.48;100.00;100278.00;5027638;28;20103;-61
2022/07/04 11:10:40;;;;;;;146.30;18.05;;;;;;;11.53;100.00;100276.19;5027370;28;20057;-60
2022/07/04 11:13:27;;;;;;;136.95;16.73;;;;;;;11.53;100.00;100276.19;5027147;28;20318;-62
2022/07/04 11:16:12;;;;;;;155.20;19.42;;;;;;;11.54;100.00;100285.75;5027044;28;20257;-62
2022/07/04 11:18:45;;;;;;;109.22;17.65;;;;;;;11.57;100.00;100276.97;5026856;28;20060;-60
2022/07/04 11:21:26;;;;;;;146.65;18.98;;;;;;;11.03;100.00;100191.69;5027652;28;20064;-61
2022/07/04 11:23:57;;;;;;;168.13;18.90;;;;;;;11.51;100.00;100272.72;5027665;28;20061;-61
2022/07/04 11:26:28;;;;;;;215.27;20.08;;;;;;;11.53;100.00;100280.53;5027932;28;20505;-61
2022/07/04 11:28:59;;;;;;;159.82;19.60;;;;;;;11.51;100.00;100288.44;5027802;28;20139;-63
2022/07/04 11:31:42;;;;;;;216.20;18.45;;;;;;;11.47;100.00;100284.16;5026049;28;20065;-60
2022/07/04 11:34:13;;;;;;;108.65;15.70;;;;;;;11.51;100.00;100287.56;5026712;28;20062;-62
2022/07/04 11:36:45;;;;;;;151.93;18.30;;;;;;;11.42;100.00;100272.91;5026622;28;20050;-62
2022/07/04 11:39:19;;;;;;;150.60;19.27;;;;;;;11.53;100.00;100297.13;5027553;28;20092;-62
2022/07/04 11:47:38;;;;;;;152.00;18.92;;;;;;;11.51;100.00;100298.91;5026587;28;20186;-62
2022/07/04 11:50:10;;;;;;;207.90;19.05;;;;;;;11.53;100.00;100307.59;5027182;28;20051;-61
2022/07/04 11:52:42;;;;;;;187.70;19.02;;;;;;;11.52;100.00;100308.47;5027591;28;20075;-61